»·PEaware :: N777CW KSNA-KBUR

N777CW :: KSNA-KBUR

FLIGHT INFORMATION

Flight Status: Arrived
Operator: Privately registered:
United States
More flights under this callsign
Pilot: Will K. (13011)
Aircraft: CESSNA 172 SKYHAWK
(C172)
More flights by this aircraft type
Origin: KSNA John Wayne-Orange Co
United States
Destination: KBUR Bob Hope-Burbank
United States
More flights between these airports :: More routes between these airports
Route: +SLI V23 POPPR SMO125 SMO SMO311 SILEX
File this flight plan on PilotEdge
Remarks: I-3 Refresher
Altitude:
(Current/Filed)
4,000ft
Speed:
(Current/Filed)
130kts
Departed: 15-Apr-18 06:30 PM
Arrived: 15-Apr-18 07:24 PM
Distance/Time
Traveled:
40nm/0:54
Distance/Time
To Go:
Arrived

Flight Plot

Page will automatically refresh every two minutes.


Map Options




Map Legend


Flown Route
Filed Route
Departure Airport
Arrival Airport
Navaid (VOR, NDB)
Fix

Horizontal Profiles

Position Reports

Time Latitude Longitude Heading Altitude Ground
Speed
15-Apr-18 18:08 33.666105 -117.872833 29 59ft 0kts
15-Apr-18 18:09 33.666108 -117.872831 29 59ft 0kts
15-Apr-18 18:10 33.666111 -117.872829 29 59ft 0kts
15-Apr-18 18:11 33.666114 -117.872827 29 59ft 0kts
15-Apr-18 18:12 33.666117 -117.872824 29 59ft 0kts
15-Apr-18 18:13 33.666121 -117.872822 29 59ft 0kts
15-Apr-18 18:14 33.666124 -117.872820 29 59ft 0kts
15-Apr-18 18:15 33.666129 -117.872817 29 59ft 0kts
15-Apr-18 18:16 33.666134 -117.872813 29 59ft 0kts
15-Apr-18 18:17 33.666138 -117.872811 29 59ft 0kts
15-Apr-18 18:18 33.666142 -117.872808 29 59ft 0kts
15-Apr-18 18:19 33.666147 -117.872805 29 59ft 0kts
15-Apr-18 18:20 33.666151 -117.872802 29 59ft 0kts
15-Apr-18 18:21 33.666155 -117.872799 29 59ft 0kts
15-Apr-18 18:22 33.667524 -117.872559 25 59ft 7kts
15-Apr-18 18:23 33.669845 -117.870159 40 59ft 14kts
15-Apr-18 18:24 33.672803 -117.867640 40 59ft 11kts
15-Apr-18 18:25 33.675061 -117.866483 27 59ft 15kts
15-Apr-18 18:26 33.678767 -117.864157 27 59ft 14kts
15-Apr-18 18:27 33.679927 -117.863607 315 59ft 0kts
15-Apr-18 18:28 33.680049 -117.863866 296 59ft 6kts
15-Apr-18 18:29 33.671212 -117.870105 213 289ft 81kts
15-Apr-18 18:30 33.654830 -117.890242 231 1186ft 88kts
15-Apr-18 18:31 33.639320 -117.913155 232 2011ft 90kts
15-Apr-18 18:32 33.625500 -117.936697 249 2801ft 85kts
15-Apr-18 18:33 33.630446 -117.963288 292 3568ft 80kts
15-Apr-18 18:34 33.641963 -117.989029 292 4045ft 101kts
15-Apr-18 18:35 33.659534 -118.013303 327 4022ft 111kts
15-Apr-18 18:36 33.681425 -118.034606 288 4063ft 101kts
15-Apr-18 18:37 33.689173 -118.066571 293 4067ft 105kts
15-Apr-18 18:38 33.701741 -118.098468 290 4021ft 103kts
15-Apr-18 18:39 33.713985 -118.129764 291 4035ft 102kts
15-Apr-18 18:40 33.726414 -118.161171 290 3994ft 104kts
15-Apr-18 18:41 33.738178 -118.191639 292 3975ft 104kts
15-Apr-18 18:42 33.755655 -118.218715 317 3992ft 105kts
15-Apr-18 18:43 33.778836 -118.240748 318 3993ft 107kts
15-Apr-18 18:44 33.802044 -118.262761 317 3988ft 107kts
15-Apr-18 18:45 33.825530 -118.284571 325 3989ft 111kts
15-Apr-18 18:46 33.854219 -118.298179 336 4034ft 112kts
15-Apr-18 18:47 33.879888 -118.321353 317 4066ft 119kts
15-Apr-18 18:48 33.904726 -118.346629 315 4058ft 112kts
15-Apr-18 18:49 33.927274 -118.368986 318 4024ft 109kts
15-Apr-18 18:50 33.950041 -118.390657 319 4030ft 104kts
15-Apr-18 18:51 33.973064 -118.412881 317 4030ft 109kts
15-Apr-18 18:52 33.996600 -118.436432 317 4039ft 111kts
15-Apr-18 18:53 34.018840 -118.461675 316 4088ft 107kts
15-Apr-18 18:54 34.041405 -118.487790 309 4025ft 108kts
15-Apr-18 18:55 34.063476 -118.511406 315 3991ft 106kts
15-Apr-18 18:56 34.088106 -118.532388 329 4046ft 113kts
15-Apr-18 18:57 34.116416 -118.550819 330 4043ft 115kts
15-Apr-18 18:58 34.145073 -118.566754 330 4032ft 110kts
15-Apr-18 18:59 34.171568 -118.583828 328 4007ft 106kts
15-Apr-18 19:00 34.196599 -118.571088 65 3988ft 114kts
15-Apr-18 19:01 34.210047 -118.536229 64 4008ft 113kts
15-Apr-18 19:02 34.223592 -118.501715 63 4050ft 115kts
15-Apr-18 19:03 34.238098 -118.466926 61 4058ft 115kts
15-Apr-18 19:04 34.252828 -118.433695 63 4077ft 114kts
15-Apr-18 19:05 34.267639 -118.399507 62 4132ft 113kts
15-Apr-18 19:06 34.282763 -118.365571 60 4128ft 117kts
15-Apr-18 19:07 34.304757 -118.351930 319 4494ft 87kts
15-Apr-18 19:08 34.308862 -118.376439 260 4944ft 74kts
15-Apr-18 19:09 34.303556 -118.403180 240 5071ft 95kts
15-Apr-18 19:10 34.289609 -118.431936 239 4882ft 111kts
15-Apr-18 19:11 34.276531 -118.461991 246 4322ft 96kts
15-Apr-18 19:12 34.265010 -118.493049 246 4000ft 94kts
15-Apr-18 19:13 34.254806 -118.521300 246 3994ft 89kts
15-Apr-18 19:14 34.244551 -118.548640 243 3998ft 88kts
15-Apr-18 19:15 34.232871 -118.575271 241 3966ft 91kts
15-Apr-18 19:16 34.214630 -118.571209 113 4004ft 102kts
15-Apr-18 19:17 34.204545 -118.536838 108 3771ft 115kts
15-Apr-18 19:18 34.200748 -118.498012 99 3222ft 125kts
15-Apr-18 19:19 34.198814 -118.461455 90 2534ft 102kts
15-Apr-18 19:20 34.198524 -118.426857 91 1723ft 102kts
15-Apr-18 19:21 34.198304 -118.396327 95 1172ft 84kts
15-Apr-18 19:22 34.197936 -118.368020 96 740ft 79kts
15-Apr-18 19:23 34.198372 -118.357945 2 724ft 1kts
15-Apr-18 19:24 34.198980 -118.358175 44 724ft 5kts
15-Apr-18 19:25 34.199833 -118.359831 352 724ft 2kts
15-Apr-18 19:26 34.199852 -118.359834 351 724ft 0kts
15-Apr-18 19:27 34.199856 -118.359835 351 724ft 0kts
15-Apr-18 19:28 34.199859 -118.359835 351 724ft 0kts
15-Apr-18 19:29 34.199863 -118.359836 351 724ft 0kts
15-Apr-18 19:30 34.199866 -118.359837 351 724ft 0kts
15-Apr-18 19:31 34.199870 -118.359837 351 724ft 0kts
15-Apr-18 19:32 34.199874 -118.359838 351 724ft 0kts
15-Apr-18 19:33 34.199877 -118.359838 351 724ft 0kts
15-Apr-18 19:34 34.199881 -118.359839 351 724ft 0kts
15-Apr-18 19:35 34.199884 -118.359840 351 724ft 0kts

Navigation Log

Ident Type
1. KSNA Airport
2. SLI Navaid
3. POPPR Fix
4. SMO Navaid
5. SILEX Fix
6. KBUR Airport